createdAt,value
2017-04-09T00:00:06.766Z,57.50
2017-04-09T00:01:06.875Z,57.60
2017-04-09T00:02:07.143Z,57.70
2017-04-09T00:03:07.611Z,57.50
2017-04-09T00:04:08.411Z,57.40
2017-04-09T00:05:08.507Z,57.60
2017-04-09T00:06:08.586Z,57.60
2017-04-09T00:07:08.820Z,57.70
2017-04-09T00:08:09.289Z,57.70
2017-04-09T00:09:10.096Z,57.50
2017-04-09T00:10:10.155Z,57.60
2017-04-09T00:11:10.275Z,57.60
2017-04-09T00:12:10.395Z,57.90
2017-04-09T00:13:11.530Z,57.70
2017-04-09T00:14:11.673Z,57.70
2017-04-09T00:15:12.598Z,57.80
2017-04-09T00:16:12.710Z,57.80
2017-04-09T00:17:12.971Z,57.90
2017-04-09T00:18:13.354Z,57.90
2017-04-09T00:19:15.879Z,57.80
2017-04-09T00:20:16.090Z,57.60
2017-04-09T00:21:16.135Z,57.80
2017-04-09T00:22:17.185Z,57.90
2017-04-09T00:23:17.580Z,57.80
2017-04-09T00:24:17.726Z,57.90
2017-04-09T00:25:21.792Z,57.70
2017-04-09T00:26:21.876Z,57.60
2017-04-09T00:27:21.910Z,57.80
2017-04-09T00:28:22.929Z,58.00
2017-04-09T00:29:23.752Z,58.00
2017-04-09T00:30:24.870Z,58.00
2017-04-09T00:31:24.952Z,58.10
2017-04-09T00:32:25.080Z,58.00
2017-04-09T00:33:25.525Z,57.80
2017-04-09T00:34:26.284Z,57.90
2017-04-09T00:35:27.054Z,57.80
2017-04-09T00:36:27.139Z,57.90
2017-04-09T00:37:27.389Z,57.90
2017-04-09T00:38:27.678Z,57.90
2017-04-09T00:39:27.757Z,57.90
2017-04-09T00:40:29.109Z,58.00
2017-04-09T00:41:29.261Z,58.20
2017-04-09T00:42:29.258Z,58.10
2017-04-09T00:43:30.356Z,58.00
2017-04-09T00:44:30.355Z,58.40
2017-04-09T00:45:30.393Z,58.50
2017-04-09T00:46:30.423Z,58.50
2017-04-09T00:47:31.260Z,58.50
2017-04-09T00:48:31.669Z,58.50
2017-04-09T00:49:32.046Z,59.20
2017-04-09T00:50:32.147Z,58.50
2017-04-09T00:51:32.209Z,58.60
2017-04-09T00:52:32.230Z,59.10
2017-04-09T00:53:32.607Z,58.70
2017-04-09T00:54:32.737Z,58.60
2017-04-09T00:55:32.724Z,58.60
2017-04-09T00:56:32.711Z,58.70
2017-04-09T00:57:32.918Z,58.50
2017-04-09T00:58:33.395Z,58.70
2017-04-09T00:59:33.414Z,58.90
2017-04-09T01:00:33.484Z,59.00
2017-04-09T01:01:33.576Z,59.20
2017-04-09T01:02:33.675Z,59.30
2017-04-09T01:03:34.103Z,59.10
2017-04-09T01:04:34.142Z,59.00
2017-04-09T01:05:34.281Z,59.10
2017-04-09T01:06:34.403Z,59.00
2017-04-09T01:07:34.467Z,59.00
2017-04-09T01:08:34.554Z,59.00
2017-04-09T01:09:35.322Z,58.80
2017-04-09T01:10:35.331Z,58.80
2017-04-09T01:11:36.019Z,58.90
2017-04-09T01:12:36.782Z,58.80
2017-04-09T01:13:37.254Z,58.80
2017-04-09T01:14:37.343Z,59.00
2017-04-09T01:15:37.402Z,58.90
2017-04-09T01:16:37.470Z,58.80
2017-04-09T01:17:38.320Z,58.70
2017-04-09T01:18:38.837Z,58.90
2017-04-09T01:19:38.903Z,58.90
2017-04-09T01:20:39.087Z,59.00
2017-04-09T01:21:39.191Z,58.90
2017-04-09T01:22:39.189Z,59.00
2017-04-09T01:23:39.518Z,59.10
2017-04-09T01:24:39.668Z,59.10
2017-04-09T01:25:39.738Z,59.00
2017-04-09T01:26:39.833Z,59.90
2017-04-09T01:27:39.854Z,59.20
2017-04-09T01:28:40.168Z,59.30
2017-04-09T01:29:41.136Z,59.10
2017-04-09T01:30:42.141Z,59.00
2017-04-09T01:31:42.194Z,59.20
2017-04-09T01:32:42.441Z,59.40
2017-04-09T01:33:42.963Z,59.40
2017-04-09T01:34:43.058Z,59.20
2017-04-09T01:35:43.164Z,59.40
2017-04-09T01:36:43.425Z,59.30
2017-04-09T01:37:43.493Z,59.70
2017-04-09T01:38:44.083Z,59.70
2017-04-09T01:39:44.111Z,59.70
2017-04-09T01:40:44.926Z,59.70
2017-04-09T01:41:45.004Z,59.70
2017-04-09T01:42:45.815Z,59.70
2017-04-09T01:43:46.135Z,59.60
2017-04-09T01:44:47.014Z,59.80
2017-04-09T01:45:47.057Z,59.70
2017-04-09T01:46:47.086Z,59.70
2017-04-09T01:47:47.114Z,59.60
2017-04-09T01:48:47.509Z,59.60
2017-04-09T01:49:47.563Z,59.60
2017-04-09T01:50:47.617Z,59.50
2017-04-09T01:51:48.423Z,59.60
2017-04-09T01:52:48.607Z,59.60
2017-04-09T01:53:48.972Z,59.60
2017-04-09T01:54:49.822Z,59.60
2017-04-09T01:55:49.963Z,59.60
2017-04-09T01:56:50.030Z,59.50
2017-04-09T01:57:50.051Z,59.60
2017-04-09T01:58:50.379Z,59.60
2017-04-09T01:59:50.441Z,59.60
2017-04-09T02:00:51.231Z,59.60
2017-04-09T02:01:51.267Z,59.60
2017-04-09T02:02:51.287Z,59.40
2017-04-09T02:03:52.419Z,59.50
2017-04-09T02:04:52.460Z,59.50
2017-04-09T02:05:52.527Z,59.50
2017-04-09T02:06:53.329Z,59.50
2017-04-09T02:07:53.450Z,59.50
2017-04-09T02:08:53.978Z,59.40
2017-04-09T02:09:54.907Z,59.50
2017-04-09T02:10:55.651Z,60.10
2017-04-09T02:11:55.770Z,60.10
2017-04-09T02:12:55.872Z,59.50
2017-04-09T02:13:56.451Z,59.50
2017-04-09T02:14:56.601Z,59.40
2017-04-09T02:15:56.669Z,59.50
2017-04-09T02:16:56.867Z,59.30
2017-04-09T02:17:56.974Z,59.50
2017-04-09T02:18:57.430Z,59.40
2017-04-09T02:19:58.293Z,59.40
2017-04-09T02:20:58.474Z,59.40
2017-04-09T02:21:58.502Z,59.40
2017-04-09T02:22:59.286Z,59.40
2017-04-09T02:23:59.923Z,59.40
2017-04-09T02:24:59.998Z,59.30
2017-04-09T02:26:00.115Z,59.40
2017-04-09T02:27:00.156Z,59.30
2017-04-09T02:28:00.167Z,59.30
2017-04-09T02:29:00.607Z,59.40
2017-04-09T02:30:00.685Z,59.40
2017-04-09T02:31:00.861Z,59.30
2017-04-09T02:32:01.646Z,59.80
2017-04-09T02:33:01.781Z,59.30
2017-04-09T02:34:02.285Z,59.30
2017-04-09T02:35:02.427Z,59.30
2017-04-09T02:36:02.525Z,59.20
2017-04-09T02:37:02.730Z,59.30
2017-04-09T02:38:02.742Z,59.30
2017-04-09T02:39:03.161Z,59.20
2017-04-09T02:40:03.242Z,59.20
2017-04-09T02:41:03.330Z,59.20
2017-04-09T02:42:04.131Z,59.20
2017-04-09T02:43:05.061Z,59.20
2017-04-09T02:44:05.469Z,59.20
2017-04-09T02:45:06.292Z,59.20
2017-04-09T02:46:07.179Z,59.20
2017-04-09T02:47:07.273Z,59.20
2017-04-09T02:48:07.339Z,59.20
2017-04-09T02:49:07.660Z,59.10
2017-04-09T02:50:07.806Z,59.10
2017-04-09T02:51:07.951Z,59.10
2017-04-09T02:52:07.979Z,59.10
2017-04-09T02:53:08.757Z,59.10
2017-04-09T02:54:09.149Z,59.10
2017-04-09T02:55:09.198Z,59.10
2017-04-09T02:56:09.293Z,59.10
2017-04-09T02:57:09.278Z,59.10
2017-04-09T02:58:09.343Z,59.10
2017-04-09T02:59:10.481Z,59.70
2017-04-09T03:00:11.259Z,59.00
2017-04-09T03:01:11.316Z,59.00
2017-04-09T03:02:12.149Z,59.00
2017-04-09T03:03:12.156Z,59.00
2017-04-09T03:04:13.282Z,59.60
2017-04-09T03:05:14.063Z,58.90
2017-04-09T03:06:14.168Z,58.90
2017-04-09T03:07:14.212Z,58.90
2017-04-09T03:08:15.003Z,58.90
2017-04-09T03:09:15.411Z,58.90
2017-04-09T03:10:15.468Z,58.90
2017-04-09T03:11:16.287Z,58.90
2017-04-09T03:12:17.320Z,58.90
2017-04-09T03:13:18.099Z,58.90
2017-04-09T03:14:18.661Z,58.80
2017-04-09T03:15:19.527Z,59.20
2017-04-09T03:16:19.577Z,59.30
2017-04-09T03:17:19.641Z,59.30
2017-04-09T03:18:19.661Z,59.40
2017-04-09T03:19:20.039Z,59.40
2017-04-09T03:20:20.091Z,59.20
2017-04-09T03:21:20.207Z,59.20
2017-04-09T03:22:20.240Z,59.30
2017-04-09T03:23:20.335Z,59.20
2017-04-09T03:24:20.876Z,59.10
2017-04-09T03:25:21.755Z,58.90
2017-04-09T03:26:21.769Z,59.30
2017-04-09T03:27:21.900Z,59.00
2017-04-09T03:28:21.979Z,59.00
2017-04-09T03:29:22.458Z,59.00
2017-04-09T03:30:23.239Z,59.10
2017-04-09T03:31:23.242Z,58.90
2017-04-09T03:32:23.322Z,58.90
2017-04-09T03:33:23.343Z,59.00
2017-04-09T03:34:23.714Z,59.00
2017-04-09T03:35:24.510Z,59.40
2017-04-09T03:36:24.527Z,59.00
2017-04-09T03:37:25.331Z,59.70
2017-04-09T03:38:26.099Z,58.90
2017-04-09T03:39:27.226Z,58.90
2017-04-09T03:40:27.998Z,58.90
2017-04-09T03:41:28.062Z,58.80
2017-04-09T03:42:28.845Z,59.60
2017-04-09T03:43:28.905Z,58.90
2017-04-09T03:44:29.296Z,58.90
2017-04-09T03:45:29.363Z,59.00
2017-04-09T03:46:29.398Z,59.10
2017-04-09T03:47:29.418Z,59.30
2017-04-09T03:48:30.249Z,60.10
2017-04-09T03:49:30.655Z,60.10
2017-04-09T03:50:30.661Z,60.10
2017-04-09T03:51:30.854Z,60.20
2017-04-09T03:52:31.012Z,60.20
2017-04-09T03:53:31.091Z,60.40
2017-04-09T03:54:32.195Z,60.60
2017-04-09T03:55:32.268Z,60.50
2017-04-09T03:56:32.331Z,60.50
2017-04-09T03:57:32.417Z,60.50
2017-04-09T03:58:32.495Z,60.60
2017-04-09T03:59:32.996Z,60.60
2017-04-09T04:00:33.128Z,60.50
2017-04-09T04:01:33.323Z,60.50
2017-04-09T04:02:33.439Z,60.40
2017-04-09T04:03:33.479Z,60.50
2017-04-09T04:04:34.054Z,60.40
2017-04-09T04:05:34.031Z,60.10
2017-04-09T04:06:34.075Z,60.00
2017-04-09T04:07:34.119Z,60.00
2017-04-09T04:08:34.239Z,60.40
2017-04-09T04:09:34.679Z,60.50
2017-04-09T04:10:34.777Z,60.50
2017-04-09T04:11:34.803Z,60.70
2017-04-09T04:12:35.594Z,60.80
2017-04-09T04:13:35.616Z,60.70
2017-04-09T04:14:36.085Z,60.60
2017-04-09T04:15:36.153Z,60.30
2017-04-09T04:16:40.370Z,60.20
2017-04-09T04:17:40.506Z,60.50
2017-04-09T04:18:40.606Z,60.10
2017-04-09T04:19:41.090Z,60.10
2017-04-09T04:20:41.894Z,60.20
2017-04-09T04:21:41.918Z,60.30
2017-04-09T04:22:42.711Z,61.00
2017-04-09T04:23:42.769Z,60.60
2017-04-09T04:24:43.796Z,60.60
2017-04-09T04:25:44.370Z,60.70
2017-04-09T04:26:44.454Z,60.50
2017-04-09T04:27:44.530Z,61.10
2017-04-09T04:28:45.291Z,60.40
2017-04-09T04:29:45.973Z,60.50
2017-04-09T04:30:46.753Z,60.50
2017-04-09T04:31:46.775Z,60.50
2017-04-09T04:32:46.929Z,60.40
2017-04-09T04:33:46.912Z,60.40
2017-04-09T04:34:47.243Z,60.10
2017-04-09T04:35:47.323Z,60.50
2017-04-09T04:36:47.350Z,60.30
2017-04-09T04:37:47.385Z,60.10
2017-04-09T04:38:47.421Z,60.40
2017-04-09T04:39:47.754Z,60.30
2017-04-09T04:40:47.778Z,60.30
2017-04-09T04:41:47.809Z,60.90
2017-04-09T04:42:48.024Z,60.20
2017-04-09T04:43:48.089Z,60.30
2017-04-09T04:44:48.240Z,60.30
2017-04-09T04:45:48.301Z,60.30
2017-04-09T04:46:48.329Z,60.20
2017-04-09T04:47:48.397Z,60.30
2017-04-09T04:48:48.575Z,60.40
2017-04-09T04:49:49.011Z,60.50
2017-04-09T04:50:49.113Z,60.70
2017-04-09T04:51:49.147Z,60.70
2017-04-09T04:52:49.158Z,60.80
2017-04-09T04:53:49.192Z,60.70
2017-04-09T04:54:50.424Z,60.60
2017-04-09T04:55:51.195Z,61.00
2017-04-09T04:56:51.228Z,60.60
2017-04-09T04:57:51.235Z,60.50
2017-04-09T04:58:51.266Z,60.50
2017-04-09T04:59:51.597Z,60.40
2017-04-09T05:01:52.671Z,60.50
2017-04-09T05:02:53.244Z,60.50
2017-04-09T05:03:53.999Z,60.60
2017-04-09T05:04:54.374Z,61.20
2017-04-09T05:05:54.492Z,60.70
2017-04-09T05:06:55.258Z,60.80
2017-04-09T05:07:56.351Z,60.80
2017-04-09T05:08:57.214Z,61.00
2017-04-09T05:09:57.692Z,61.20
2017-04-09T05:10:57.746Z,61.20
2017-04-09T05:11:58.599Z,61.10
2017-04-09T05:12:58.728Z,61.10
2017-04-09T05:13:58.750Z,61.00
2017-04-09T05:15:00.041Z,60.90
2017-04-09T05:16:00.011Z,60.80
2017-04-09T05:17:00.095Z,60.80
2017-04-09T05:18:00.181Z,60.80
2017-04-09T05:19:00.231Z,60.80
2017-04-09T05:20:00.639Z,61.00
2017-04-09T05:21:01.345Z,61.20
2017-04-09T05:22:02.114Z,61.30
2017-04-09T05:23:02.240Z,61.40
2017-04-09T05:24:02.300Z,61.50
2017-04-09T05:25:03.623Z,61.50
2017-04-09T05:26:04.377Z,62.20
2017-04-09T05:27:04.413Z,61.40
2017-04-09T05:28:04.557Z,61.40
2017-04-09T05:29:05.299Z,61.30
2017-04-09T05:30:05.715Z,61.40
2017-04-09T05:31:05.981Z,61.70
2017-04-09T05:32:06.015Z,61.70
2017-04-09T05:33:06.072Z,61.90
2017-04-09T05:34:06.139Z,61.80
2017-04-09T05:35:07.409Z,62.10
2017-04-09T05:36:07.736Z,62.00
2017-04-09T05:37:07.775Z,61.80
2017-04-09T05:38:07.874Z,62.00
2017-04-09T05:39:07.951Z,62.00
2017-04-09T05:40:08.345Z,62.00
2017-04-09T05:41:08.654Z,62.00
2017-04-09T05:42:08.715Z,62.00
2017-04-09T05:43:08.781Z,62.10
2017-04-09T05:44:08.821Z,62.00
2017-04-09T05:45:09.226Z,62.40
2017-04-09T05:46:09.333Z,62.40
2017-04-09T05:47:10.042Z,62.70
2017-04-09T05:48:10.095Z,62.70
2017-04-09T05:49:10.236Z,63.10
2017-04-09T05:50:10.650Z,63.10
2017-04-09T05:51:10.709Z,63.10
2017-04-09T05:52:10.859Z,63.10
2017-04-09T05:53:11.019Z,63.10
2017-04-09T05:54:11.178Z,63.10
2017-04-09T05:55:11.706Z,63.00
2017-04-09T05:56:12.502Z,62.40
2017-04-09T05:57:12.627Z,62.40
2017-04-09T05:58:12.683Z,62.40
2017-04-09T05:59:13.472Z,62.40
2017-04-09T06:00:14.265Z,62.30
2017-04-09T06:01:14.338Z,62.70
2017-04-09T06:02:14.396Z,62.60
2017-04-09T06:03:14.485Z,62.80
2017-04-09T06:04:14.566Z,62.60
2017-04-09T06:05:15.046Z,62.60
2017-04-09T06:06:15.889Z,62.80
2017-04-09T06:07:16.161Z,62.80
2017-04-09T06:08:16.330Z,62.80
2017-04-09T06:09:16.559Z,62.80
2017-04-09T06:10:16.937Z,63.10
2017-04-09T06:11:17.002Z,63.50
2017-04-09T06:12:17.027Z,63.10
2017-04-09T06:13:17.103Z,63.20
2017-04-09T06:14:17.134Z,63.20
2017-04-09T06:15:17.467Z,63.40
2017-04-09T06:16:17.667Z,63.20
2017-04-09T06:17:18.457Z,63.30
2017-04-09T06:18:18.849Z,63.40
2017-04-09T06:19:19.884Z,63.60
2017-04-09T06:20:21.206Z,64.00
2017-04-09T06:21:21.282Z,63.90
2017-04-09T06:22:21.433Z,64.10
2017-04-09T06:23:21.507Z,64.10
2017-04-09T06:24:22.329Z,64.40
2017-04-09T06:25:23.495Z,64.60
2017-04-09T06:26:23.567Z,64.40
2017-04-09T06:27:23.727Z,64.50
2017-04-09T06:28:24.589Z,64.60
2017-04-09T06:29:24.687Z,64.50
2017-04-09T06:30:25.384Z,64.60
2017-04-09T06:31:25.540Z,64.80
2017-04-09T06:32:25.603Z,64.80
2017-04-09T06:33:25.650Z,64.80
2017-04-09T06:34:25.721Z,65.00
2017-04-09T06:35:26.314Z,64.90
2017-04-09T06:36:26.392Z,64.90
2017-04-09T06:37:26.439Z,65.10
2017-04-09T06:38:26.809Z,64.90
2017-04-09T06:39:27.826Z,65.10
2017-04-09T06:40:28.502Z,65.10
2017-04-09T06:41:28.548Z,64.90
2017-04-09T06:42:29.131Z,64.70
2017-04-09T06:43:29.330Z,64.60
2017-04-09T06:44:30.231Z,64.80
2017-04-09T06:45:30.676Z,64.70
2017-04-09T06:46:30.746Z,65.60
2017-04-09T06:47:30.845Z,64.60
2017-04-09T06:48:30.972Z,64.40
2017-04-09T06:49:31.067Z,64.60
2017-04-09T06:50:31.517Z,64.60
2017-04-09T06:51:31.660Z,64.80
2017-04-09T06:52:31.851Z,64.70
2017-04-09T06:53:32.385Z,64.70
2017-04-09T06:54:32.760Z,64.70
2017-04-09T06:55:34.900Z,64.70
2017-04-09T06:56:35.223Z,64.80
2017-04-09T06:57:35.378Z,64.80
2017-04-09T06:58:37.079Z,64.70
2017-04-09T06:59:37.192Z,64.90
2017-04-09T07:00:37.613Z,64.80
2017-04-09T07:01:38.433Z,64.90
2017-04-09T07:02:47.991Z,65.00
2017-04-09T07:03:48.438Z,65.50
2017-04-09T07:04:48.719Z,64.40
2017-04-09T07:05:48.777Z,64.60
2017-04-09T07:06:48.866Z,64.80
2017-04-09T07:07:48.997Z,64.70
2017-04-09T07:08:49.100Z,64.70
2017-04-09T07:09:49.278Z,64.30
2017-04-09T07:10:49.654Z,64.20
2017-04-09T07:11:49.854Z,64.40
2017-04-09T07:12:50.687Z,64.10
2017-04-09T07:13:50.882Z,64.40
2017-04-09T07:14:51.023Z,64.50
2017-04-09T07:15:52.178Z,64.10
2017-04-09T07:16:52.295Z,63.80
2017-04-09T07:17:53.146Z,63.40
2017-04-09T07:18:53.264Z,63.00
2017-04-09T07:19:53.766Z,62.00
2017-04-09T07:20:54.272Z,62.70
2017-04-09T07:21:54.403Z,63.20
2017-04-09T07:22:54.464Z,62.60
2017-04-09T07:23:54.926Z,61.90
2017-04-09T07:24:55.007Z,61.90
2017-04-09T07:25:55.455Z,61.70
2017-04-09T07:26:55.504Z,61.30
2017-04-09T07:27:56.426Z,61.30
2017-04-09T07:28:57.227Z,59.80
2017-04-09T07:29:57.414Z,59.90
2017-04-09T07:30:57.892Z,61.50
2017-04-09T07:31:57.943Z,60.00
2017-04-09T07:32:58.082Z,60.30
2017-04-09T07:33:58.198Z,60.40
2017-04-09T07:34:58.310Z,59.80
2017-04-09T07:35:59.492Z,59.30
2017-04-09T07:37:00.087Z,58.30
2017-04-09T07:38:00.186Z,59.60
2017-04-09T07:39:00.972Z,57.40
2017-04-09T07:40:02.270Z,58.00
2017-04-09T07:41:03.084Z,57.60
2017-04-09T07:42:03.491Z,57.50
2017-04-09T07:43:04.466Z,57.40
2017-04-09T07:44:04.575Z,57.60
2017-04-09T07:45:04.758Z,56.70
2017-04-09T07:46:05.195Z,56.90
2017-04-09T07:47:05.364Z,56.60
2017-04-09T07:48:05.427Z,55.90
2017-04-09T07:49:06.265Z,56.40
2017-04-09T07:50:06.373Z,56.30
2017-04-09T07:51:08.548Z,54.50
2017-04-09T07:52:09.413Z,55.60
2017-04-09T07:53:09.601Z,55.10
2017-04-09T07:54:10.391Z,54.30
2017-04-09T07:55:10.902Z,54.50
2017-04-09T07:56:11.266Z,54.20
2017-04-09T07:57:11.414Z,54.60
2017-04-09T07:58:11.532Z,54.70
2017-04-09T07:59:11.647Z,53.10
2017-04-09T08:00:11.748Z,53.60
2017-04-09T08:01:12.832Z,53.30
2017-04-09T08:02:13.686Z,52.50
2017-04-09T08:03:13.815Z,52.00
2017-04-09T08:04:13.899Z,52.30
2017-04-09T08:05:14.061Z,53.00
2017-04-09T08:06:15.308Z,51.50
2017-04-09T08:07:16.134Z,51.10
2017-04-09T08:08:16.960Z,51.80
2017-04-09T08:09:17.814Z,51.10
2017-04-09T08:10:18.047Z,49.80
2017-04-09T08:11:18.513Z,49.80
2017-04-09T08:12:19.351Z,49.20
2017-04-09T08:13:20.150Z,49.10
2017-04-09T08:14:21.198Z,49.10
2017-04-09T08:15:22.057Z,47.70
2017-04-09T08:16:22.675Z,47.80
2017-04-09T08:17:22.754Z,47.90
2017-04-09T08:18:23.635Z,47.40
2017-04-09T08:19:23.751Z,47.10
2017-04-09T08:20:23.826Z,46.50
2017-04-09T08:21:24.317Z,46.10
2017-04-09T08:22:25.120Z,44.80
2017-04-09T08:23:25.210Z,45.30
2017-04-09T08:24:25.350Z,44.40
2017-04-09T08:25:25.453Z,43.90
2017-04-09T08:26:25.889Z,44.30
2017-04-09T08:27:26.008Z,44.70
2017-04-09T08:28:26.147Z,44.80
2017-04-09T08:29:26.343Z,44.60
2017-04-09T08:30:26.398Z,43.40
2017-04-09T08:31:26.841Z,43.90
2017-04-09T08:32:27.001Z,43.80
2017-04-09T08:33:27.159Z,43.00
2017-04-09T08:34:27.987Z,41.60
2017-04-09T08:35:28.118Z,41.60
2017-04-09T08:36:28.624Z,41.60
2017-04-09T08:37:28.726Z,41.20
2017-04-09T08:38:29.561Z,41.80
2017-04-09T08:39:29.593Z,41.10
2017-04-09T08:40:29.689Z,40.40
2017-04-09T08:41:31.534Z,40.40
2017-04-09T08:42:31.595Z,40.30
2017-04-09T08:43:31.688Z,40.40
2017-04-09T08:44:32.159Z,39.80
2017-04-09T08:45:32.214Z,39.40
2017-04-09T08:46:32.641Z,38.40
2017-04-09T08:47:32.760Z,38.50
2017-04-09T08:48:32.814Z,38.70
2017-04-09T08:49:32.874Z,39.00
2017-04-09T08:50:32.893Z,39.10
2017-04-09T08:51:34.145Z,37.00
2017-04-09T08:52:34.284Z,37.00
2017-04-09T08:53:34.368Z,36.70
2017-04-09T08:54:34.464Z,36.80
2017-04-09T08:55:34.570Z,37.60
2017-04-09T08:56:35.646Z,37.70
2017-04-09T08:57:35.703Z,37.20
2017-04-09T08:58:35.782Z,36.90
2017-04-09T08:59:35.862Z,37.70
2017-04-09T09:00:35.963Z,37.00
2017-04-09T09:01:36.464Z,37.10
2017-04-09T09:02:36.586Z,36.80
2017-04-09T09:03:36.739Z,37.00
2017-04-09T09:04:36.923Z,37.70
2017-04-09T09:05:37.030Z,37.50
2017-04-09T09:06:37.500Z,36.80
2017-04-09T09:07:38.353Z,37.60
2017-04-09T09:08:38.446Z,37.50
2017-04-09T09:09:39.211Z,37.00
2017-04-09T09:10:39.271Z,37.20
2017-04-09T09:11:41.324Z,36.50
2017-04-09T09:12:42.152Z,36.80
2017-04-09T09:13:42.265Z,35.40
2017-04-09T09:14:43.157Z,36.20
2017-04-09T09:15:43.165Z,36.80
2017-04-09T09:16:43.306Z,36.70
2017-04-09T09:17:44.103Z,36.10
2017-04-09T09:18:44.193Z,36.20
2017-04-09T09:19:44.191Z,36.10
2017-04-09T09:20:44.316Z,36.20
2017-04-09T09:21:44.881Z,35.80
2017-04-09T09:22:44.963Z,36.10
2017-04-09T09:23:45.052Z,36.50
2017-04-09T09:24:45.248Z,36.30
2017-04-09T09:25:45.332Z,36.90
2017-04-09T09:26:45.739Z,36.80
2017-04-09T09:27:45.793Z,35.70
2017-04-09T09:28:45.866Z,35.00
2017-04-09T09:29:45.919Z,35.10
2017-04-09T09:30:45.956Z,35.30
2017-04-09T09:31:47.112Z,36.50
2017-04-09T09:32:47.194Z,35.80
2017-04-09T09:33:47.961Z,34.50
2017-04-09T09:34:48.013Z,34.10
2017-04-09T09:35:48.820Z,34.20
2017-04-09T09:36:49.271Z,34.10
2017-04-09T09:37:50.075Z,33.70
2017-04-09T09:38:50.188Z,33.70
2017-04-09T09:39:50.308Z,33.80
2017-04-09T09:40:51.076Z,33.90
2017-04-09T09:41:51.659Z,33.90
2017-04-09T09:42:51.773Z,33.00
2017-04-09T09:43:51.925Z,33.60
2017-04-09T09:44:52.269Z,33.50
2017-04-09T09:45:52.671Z,33.40
2017-04-09T09:46:53.306Z,34.10
2017-04-09T09:47:53.374Z,33.80
2017-04-09T09:48:53.653Z,34.10
2017-04-09T09:49:54.620Z,34.20
2017-04-09T09:50:54.863Z,33.90
2017-04-09T09:51:55.410Z,33.70
2017-04-09T09:52:56.479Z,33.90
2017-04-09T09:53:56.669Z,33.50
2017-04-09T09:54:57.724Z,33.50
2017-04-09T09:55:57.953Z,33.80
2017-04-09T09:56:58.426Z,34.70
2017-04-09T09:57:58.749Z,34.20
2017-04-09T09:58:58.884Z,34.70
2017-04-09T09:59:59.131Z,34.30
2017-04-09T10:00:59.296Z,34.30
2017-04-09T10:01:59.877Z,34.20
2017-04-09T10:03:00.716Z,33.40
2017-04-09T10:04:00.862Z,34.10
2017-04-09T10:05:00.934Z,33.50
2017-04-09T10:06:01.006Z,33.40
2017-04-09T10:07:02.609Z,34.00
2017-04-09T10:08:02.776Z,34.40
2017-04-09T10:09:03.039Z,34.10
2017-04-09T10:10:03.879Z,34.10
2017-04-09T10:11:04.095Z,34.10
2017-04-09T10:12:05.061Z,33.10
2017-04-09T10:13:05.886Z,33.30
2017-04-09T10:14:06.759Z,33.70
2017-04-09T10:15:07.069Z,33.30
2017-04-09T10:16:07.150Z,33.30
2017-04-09T10:17:07.551Z,33.50
2017-04-09T10:18:08.187Z,33.30
2017-04-09T10:19:08.348Z,33.30
2017-04-09T10:20:08.465Z,32.60
2017-04-09T10:21:08.595Z,33.50
2017-04-09T10:22:09.389Z,32.10
2017-04-09T10:23:09.580Z,33.50
2017-04-09T10:24:09.671Z,32.60
2017-04-09T10:25:11.308Z,32.30
2017-04-09T10:26:11.922Z,32.80
2017-04-09T10:27:12.648Z,32.00
2017-04-09T10:28:12.914Z,32.00
2017-04-09T10:29:13.042Z,30.70
2017-04-09T10:30:13.151Z,31.10
2017-04-09T10:31:14.111Z,31.70
2017-04-09T10:32:14.711Z,31.50
2017-04-09T10:33:14.826Z,30.40
2017-04-09T10:34:15.001Z,30.10
2017-04-09T11:11:25.819Z,40.10
2017-04-09T11:12:26.899Z,41.00
2017-04-09T11:13:27.410Z,41.40
2017-04-09T11:14:27.731Z,42.60
2017-04-09T11:15:27.890Z,42.00
2017-04-09T12:07:56.827Z,39.90
2017-04-09T12:08:56.107Z,42.50
2017-04-09T12:09:56.147Z,40.60
2017-04-09T12:10:55.449Z,41.10
2017-04-09T12:11:55.104Z,39.30
2017-04-09T12:12:55.143Z,40.40
2017-04-09T12:13:54.372Z,38.80
2017-04-09T12:14:53.656Z,37.60
2017-04-09T12:15:52.954Z,38.80
2017-04-09T12:16:53.751Z,38.50
2017-04-09T12:17:53.838Z,38.00
2017-04-09T12:18:53.926Z,38.00
2017-04-09T12:19:54.003Z,37.50
2017-04-09T12:20:54.930Z,37.00
2017-04-09T12:21:55.731Z,36.80
2017-04-09T12:22:55.790Z,36.70
2017-04-09T12:23:56.059Z,37.10
2017-04-09T12:24:56.144Z,36.50
2017-04-09T12:25:56.182Z,37.20
2017-04-09T12:26:57.050Z,37.30
2017-04-09T12:27:57.550Z,37.40
2017-04-09T12:28:57.594Z,38.50
2017-04-09T12:29:57.654Z,38.90
2017-04-09T12:30:58.470Z,39.20
2017-04-09T12:31:59.313Z,38.80
2017-04-09T12:32:59.004Z,38.80
2017-04-09T12:34:00.314Z,38.80
2017-04-09T12:35:00.502Z,39.40
2017-04-09T12:36:00.651Z,38.80
2017-04-09T12:37:01.394Z,38.80
2017-04-09T12:38:01.899Z,39.40
2017-04-09T12:39:02.724Z,38.80
2017-04-09T12:40:03.490Z,38.80
2017-04-09T12:41:03.552Z,37.90
2017-04-09T12:42:04.803Z,38.90
2017-04-09T12:43:05.207Z,38.90
2017-04-09T12:44:06.066Z,38.90
2017-04-09T12:45:06.286Z,38.90
2017-04-09T12:46:06.361Z,38.90
2017-04-09T12:47:07.114Z,39.00
2017-04-09T12:48:07.225Z,37.90
2017-04-09T12:49:07.368Z,39.10
2017-04-09T12:50:07.444Z,39.60
2017-04-09T12:51:08.131Z,38.30
2017-04-09T12:52:08.184Z,38.20
2017-04-09T12:53:08.762Z,38.40
2017-04-09T12:54:09.605Z,37.70
2017-04-09T12:55:09.662Z,37.70
2017-04-09T12:56:09.706Z,37.50
2017-04-09T12:57:09.842Z,38.00
2017-04-09T12:58:10.333Z,37.90
2017-04-09T12:59:10.381Z,38.20
2017-04-09T13:00:10.432Z,37.80
2017-04-09T13:01:11.362Z,37.90
2017-04-09T13:02:12.219Z,38.20
2017-04-09T13:03:13.273Z,38.10
2017-04-09T13:04:13.585Z,38.20
2017-04-09T13:05:13.695Z,38.10
2017-04-09T13:06:13.833Z,38.30
2017-04-09T13:07:14.661Z,37.60
2017-04-09T13:08:15.091Z,38.20
2017-04-09T13:09:15.843Z,38.00
2017-04-09T13:10:16.072Z,37.70
2017-04-09T13:11:16.435Z,38.10
2017-04-09T13:12:17.408Z,38.70
2017-04-09T13:13:17.804Z,38.00
2017-04-09T13:14:17.878Z,37.50
2017-04-09T13:15:18.095Z,36.70
2017-04-09T13:16:18.931Z,35.20
2017-04-09T13:17:19.927Z,36.00
2017-04-09T13:18:20.383Z,35.60
2017-04-09T13:19:21.189Z,35.40
2017-04-09T13:20:21.271Z,35.60
2017-04-09T13:21:22.266Z,36.30
2017-04-09T13:22:22.317Z,36.10
2017-04-09T13:23:22.774Z,36.90
2017-04-09T13:24:22.882Z,37.40
2017-04-09T13:25:22.973Z,36.40
2017-04-09T13:26:23.760Z,36.60
2017-04-09T13:27:24.590Z,37.00
2017-04-09T13:28:25.354Z,37.10
2017-04-09T13:29:26.183Z,35.60
2017-04-09T13:30:26.315Z,35.00
2017-04-09T13:31:26.384Z,35.90
2017-04-09T13:32:26.591Z,36.60
2017-04-09T13:33:28.978Z,36.60
2017-04-09T13:34:29.873Z,36.30
2017-04-09T13:35:29.904Z,35.40
2017-04-09T13:36:30.693Z,35.50
2017-04-09T13:37:30.768Z,35.50
2017-04-09T13:41:01.227Z,35.10
2017-04-09T13:42:01.372Z,35.00
2017-04-09T13:43:02.216Z,35.90
2017-04-09T13:44:02.638Z,35.20
2017-04-09T13:45:04.111Z,34.40
2017-04-09T13:46:04.179Z,35.10
2017-04-09T13:47:05.042Z,35.10
2017-04-09T13:48:05.136Z,35.10
2017-04-09T13:49:05.623Z,35.60
2017-04-09T13:50:06.391Z,35.30
2017-04-09T13:51:06.536Z,35.00
2017-04-09T13:52:06.638Z,34.80
2017-04-09T13:53:06.722Z,34.30
2017-04-09T13:54:07.425Z,34.50
2017-04-09T13:55:07.816Z,35.20
2017-04-09T13:56:08.609Z,35.60
2017-04-09T13:57:09.783Z,36.70
2017-04-09T13:58:09.913Z,35.30
2017-04-09T13:59:10.406Z,34.40
2017-04-09T14:00:11.262Z,34.50
2017-04-09T14:01:11.359Z,34.60
2017-04-09T14:02:11.779Z,34.30
2017-04-09T14:03:12.344Z,34.80
2017-04-09T14:04:12.892Z,35.00
2017-04-09T14:05:13.689Z,35.10
2017-04-09T14:06:13.786Z,34.40
2017-04-09T14:07:13.845Z,34.60
2017-04-09T14:08:13.922Z,34.10
2017-04-09T14:09:15.097Z,35.20
2017-04-09T14:10:15.275Z,34.70
2017-04-09T14:11:16.648Z,34.80
2017-04-09T14:12:16.712Z,34.60
2017-04-09T14:13:17.532Z,34.60
2017-04-09T14:14:17.984Z,34.70
2017-04-09T14:15:18.095Z,33.90
2017-04-09T14:16:18.216Z,33.60
2017-04-09T14:17:18.457Z,33.80
2017-04-09T14:18:18.544Z,32.90
2017-04-09T14:19:19.197Z,33.20
2017-04-09T14:20:19.254Z,32.70
2017-04-09T14:21:19.336Z,32.80
2017-04-09T14:22:20.167Z,33.10
2017-04-09T14:23:20.963Z,33.20
2017-04-09T14:24:21.939Z,33.70
2017-04-09T14:25:22.007Z,34.10
2017-04-09T14:26:22.077Z,33.50
2017-04-09T14:27:22.149Z,34.40
2017-04-09T14:28:22.976Z,34.60